Time;durP1;ratioP1;P1;durP2;ratioP2;P2;SDS_P1;SDS_P2;PMS_P1;PMS_P2;Temp;Humidity;BMP_temperature;BMP_pressure;BME280_temperature;BME280_humidity;BME280_pressure;Samples;Min_cycle;Max_cycle;Signal;HPM_P1;HPM_P2
2022/03/31 00:01:39;;;;;;;25.65;12.13;;;;;;;10.35;100.00;98298.06;4993352;28;20375;-62
2022/03/31 00:04:05;;;;;;;22.63;12.45;;;;;;;10.29;100.00;98285.16;4993713;28;20030;-62
2022/03/31 00:06:30;;;;;;;26.80;12.63;;;;;;;10.37;100.00;98289.09;4993460;28;20026;-62
2022/03/31 00:08:55;;;;;;;29.85;13.18;;;;;;;10.38;100.00;98292.56;4993518;28;20057;-62
2022/03/31 00:11:21;;;;;;;29.95;13.65;;;;;;;10.35;100.00;98283.00;4993628;28;20637;-62
2022/03/31 00:13:47;;;;;;;27.35;12.48;;;;;;;10.36;100.00;98291.84;4993478;28;20030;-62
2022/03/31 00:16:12;;;;;;;30.50;14.45;;;;;;;10.39;100.00;98287.16;4993123;28;20034;-62
2022/03/31 00:18:38;;;;;;;27.48;12.60;;;;;;;10.40;100.00;98278.28;4993459;28;20160;-62
2022/03/31 00:21:03;;;;;;;30.85;13.00;;;;;;;10.37;100.00;98275.78;4993184;28;20030;-62
2022/03/31 00:23:29;;;;;;;25.95;13.43;;;;;;;10.39;100.00;98279.19;4993478;28;20518;-62
2022/03/31 00:25:55;;;;;;;23.92;11.77;;;;;;;10.40;100.00;98272.94;4992724;28;20044;-62
2022/03/31 00:28:22;;;;;;;23.58;12.25;;;;;;;10.45;100.00;98265.56;4993103;28;20031;-62
2022/03/31 00:30:48;;;;;;;28.33;12.85;;;;;;;10.45;100.00;98262.03;4992301;28;20055;-62
2022/03/31 00:33:14;;;;;;;28.63;13.20;;;;;;;10.53;100.00;98257.97;4993322;28;20026;-62
2022/03/31 00:35:40;;;;;;;24.45;13.60;;;;;;;10.52;100.00;98252.75;4992396;28;20101;-62
2022/03/31 00:38:05;;;;;;;23.15;11.40;;;;;;;10.53;100.00;98257.97;4993142;28;20026;-62
2022/03/31 00:40:31;;;;;;;26.67;12.20;;;;;;;10.52;99.99;98250.09;4992181;28;20363;-62
2022/03/31 00:42:57;;;;;;;26.45;12.55;;;;;;;10.55;99.07;98255.22;4993106;28;20022;-62
2022/03/31 00:45:46;;;;;;;26.90;11.70;;;;;;;10.55;99.87;98255.22;4992900;28;20518;-62
2022/03/31 00:48:13;;;;;;;30.02;12.75;;;;;;;10.51;99.45;98254.56;4992633;28;20032;-62
2022/03/31 00:50:38;;;;;;;24.13;11.27;;;;;;;10.50;100.00;98257.31;4992635;28;20018;-62
2022/03/31 00:53:04;;;;;;;24.77;12.48;;;;;;;10.45;99.28;98254.06;4993020;28;20032;-62
2022/03/31 00:55:29;;;;;;;26.33;12.32;;;;;;;10.44;99.69;98247.88;4992213;28;20026;-62
2022/03/31 00:57:55;;;;;;;19.48;11.50;;;;;;;10.50;100.00;98244.88;4992834;28;20030;-62
2022/03/31 01:00:21;;;;;;;26.40;11.32;;;;;;;10.57;100.00;98243.56;4991697;28;20497;-62
2022/03/31 01:02:46;;;;;;;22.42;11.18;;;;;;;10.60;99.98;98239.84;4992326;28;20053;-62
2022/03/31 01:05:14;;;;;;;26.67;12.80;;;;;;;10.60;100.00;98234.53;4992396;28;20393;-62
2022/03/31 01:07:40;;;;;;;28.13;12.00;;;;;;;10.57;99.58;98235.59;4992762;28;20113;-62
2022/03/31 01:10:08;;;;;;;25.33;11.55;;;;;;;10.59;99.83;98228.34;4991867;28;20330;-62
2022/03/31 01:12:34;;;;;;;28.30;12.30;;;;;;;10.66;100.00;98222.69;4992636;28;20022;-62
2022/03/31 01:15:08;;;;;;;25.70;11.80;;;;;;;10.66;99.37;98225.34;4992366;28;20069;-62
2022/03/31 01:17:42;;;;;;;29.55;13.52;;;;;;;10.67;99.39;98216.41;4992599;28;20030;-62
2022/03/31 01:20:11;;;;;;;29.42;12.48;;;;;;;10.66;99.56;98222.69;4992113;28;20022;-62
2022/03/31 01:22:36;;;;;;;29.52;12.73;;;;;;;10.67;99.21;98216.41;4992678;28;20544;-62
2022/03/31 01:25:06;;;;;;;29.45;12.60;;;;;;;10.66;99.57;98212.03;4992236;28;20066;-62
2022/03/31 01:27:34;;;;;;;30.05;13.75;;;;;;;10.61;99.74;98213.16;4992602;28;20494;-62
2022/03/31 01:29:59;;;;;;;27.67;12.23;;;;;;;10.67;99.88;98211.09;4992123;28;20022;-62
2022/03/31 01:32:25;;;;;;;29.30;14.48;;;;;;;10.67;99.20;98213.75;4992579;28;20521;-62
2022/03/31 01:34:50;;;;;;;28.55;12.40;;;;;;;10.71;99.56;98217.94;4992143;28;20470;-62
2022/03/31 01:37:16;;;;;;;29.65;13.52;;;;;;;10.74;98.93;98209.75;4992227;28;20514;-62
2022/03/31 01:39:42;;;;;;;29.45;12.85;;;;;;;10.71;99.17;98213.44;4992188;28;20516;-62
2022/03/31 01:42:07;;;;;;;32.72;13.20;;;;;;;10.73;98.88;98206.25;4995467;28;20037;-62
2022/03/31 01:44:33;;;;;;;28.75;12.38;;;;;;;10.70;98.98;98189.63;4996281;28;20026;-62
2022/03/31 01:46:59;;;;;;;30.30;13.05;;;;;;;10.76;98.98;98199.91;4996092;28;20502;-62
2022/03/31 01:49:24;;;;;;;23.52;12.30;;;;;;;10.72;99.13;98185.94;4996005;28;20054;-62
2022/03/31 01:51:50;;;;;;;26.27;12.55;;;;;;;10.83;99.56;98193.22;4996039;28;20469;-62
2022/03/31 01:54:16;;;;;;;29.92;13.75;;;;;;;10.78;98.82;98193.50;4996141;28;20045;-62
2022/03/31 01:56:42;;;;;;;31.55;14.40;;;;;;;10.76;98.81;98194.56;4996031;28;20146;-62
2022/03/31 01:59:08;;;;;;;29.05;13.95;;;;;;;10.76;99.24;98195.41;4994254;28;20022;-62
2022/03/31 02:01:33;;;;;;;28.65;14.05;;;;;;;10.78;99.31;98190.00;4995583;28;20141;-62
2022/03/31 02:03:59;;;;;;;28.08;13.02;;;;;;;10.80;98.30;98186.31;4996103;28;20397;-62
2022/03/31 02:06:24;;;;;;;28.98;13.35;;;;;;;10.84;98.51;98176.34;4995869;28;20132;-62
2022/03/31 02:08:49;;;;;;;25.20;12.93;;;;;;;10.88;98.41;98185.81;4995912;28;20022;-62
2022/03/31 02:11:15;;;;;;;26.73;12.90;;;;;;;10.93;98.46;98178.41;4995572;28;20022;-62
2022/03/31 02:13:40;;;;;;;25.05;11.88;;;;;;;10.87;98.23;98177.00;4978236;28;20477;-62
2022/03/31 02:16:06;;;;;;;28.75;13.82;;;;;;;10.81;98.13;98168.56;4995245;28;20188;-62
2022/03/31 02:18:31;;;;;;;28.83;14.95;;;;;;;10.78;98.67;98163.41;4995773;28;20455;-62
2022/03/31 02:20:57;;;;;;;29.80;13.77;;;;;;;10.77;97.68;98159.03;4994137;28;20042;-62
2022/03/31 02:23:22;;;;;;;30.15;13.38;;;;;;;10.85;98.74;98162.06;4995929;28;20030;-62
2022/03/31 02:25:48;;;;;;;32.80;14.82;;;;;;;10.86;98.47;98158.44;4995618;28;20037;-62
2022/03/31 02:28:13;;;;;;;25.42;12.65;;;;;;;10.87;98.99;98149.53;4995307;28;20084;-62
2022/03/31 02:30:40;;;;;;;32.28;14.07;;;;;;;10.86;98.37;98154.00;4995135;28;20014;-62
2022/03/31 02:33:06;;;;;;;28.27;12.75;;;;;;;10.84;98.19;98152.41;4995241;28;20030;-62
2022/03/31 02:35:31;;;;;;;26.50;13.40;;;;;;;10.86;98.05;98150.47;4995268;28;20088;-62
2022/03/31 02:37:57;;;;;;;31.98;14.05;;;;;;;10.86;98.51;98142.50;4995308;28;20038;-62
2022/03/31 02:40:23;;;;;;;30.98;14.32;;;;;;;10.81;99.08;98141.97;4994597;28;20037;-62
2022/03/31 02:42:48;;;;;;;28.95;13.23;;;;;;;10.91;98.20;98145.72;4995015;28;20113;-62
2022/03/31 02:45:14;;;;;;;28.33;12.98;;;;;;;10.84;98.89;98141.75;4995124;28;20030;-62
2022/03/31 02:47:40;;;;;;;30.67;13.27;;;;;;;10.83;98.86;98135.56;4994993;28;20105;-63
2022/03/31 02:50:07;;;;;;;28.77;12.60;;;;;;;10.85;98.80;98135.47;4994392;28;20529;-62
2022/03/31 02:55:25;;;;;;;31.13;13.18;;;;;;;10.87;100.00;98128.25;4975473;28;20203;-62
2022/03/31 02:57:54;;;;;;;31.00;13.80;;;;;;;10.89;99.76;98137.00;4975741;28;20466;-62
2022/03/31 03:00:20;;;;;;;25.92;12.50;;;;;;;10.91;98.70;98135.94;4994411;28;20027;-62
2022/03/31 03:02:45;;;;;;;32.60;14.40;;;;;;;10.84;99.62;98133.78;4994486;28;20469;-62
2022/03/31 03:05:11;;;;;;;26.05;13.82;;;;;;;10.79;99.22;98127.91;4994859;28;20061;-62
2022/03/31 03:07:36;;;;;;;28.35;12.68;;;;;;;10.78;100.00;98128.81;4994522;28;20026;-62
2022/03/31 03:10:02;;;;;;;32.28;14.18;;;;;;;10.75;100.00;98129.03;4994731;28;20033;-62
2022/03/31 03:12:28;;;;;;;28.92;13.98;;;;;;;10.79;100.00;98130.56;4994931;28;20105;-62
2022/03/31 03:14:53;;;;;;;29.05;13.98;;;;;;;10.84;100.00;98123.16;4994407;28;20030;-62
2022/03/31 03:17:19;;;;;;;30.90;15.25;;;;;;;10.86;100.00;98126.53;4984273;28;20105;-62
2022/03/31 03:19:44;;;;;;;29.52;14.88;;;;;;;10.77;100.00;98121.81;4975050;28;20045;-62
2022/03/31 03:22:09;;;;;;;33.92;13.75;;;;;;;10.75;100.00;98110.41;4974937;28;20474;-62
2022/03/31 03:24:35;;;;;;;28.92;13.32;;;;;;;10.73;100.00;98114.97;4974998;28;20059;-62
2022/03/31 03:27:01;;;;;;;26.83;13.30;;;;;;;10.73;100.00;98115.84;4974771;28;20034;-62
2022/03/31 03:29:27;;;;;;;27.60;13.52;;;;;;;10.66;100.00;98100.38;4975128;28;20501;-62
2022/03/31 03:31:52;;;;;;;29.02;13.35;;;;;;;10.76;100.00;98109.47;4983468;28;20054;-62
2022/03/31 03:34:18;;;;;;;33.10;15.18;;;;;;;10.76;100.00;98112.13;4994175;28;20034;-62
2022/03/31 03:36:44;;;;;;;31.17;13.98;;;;;;;10.78;100.00;98104.91;4994054;28;20041;-62
2022/03/31 03:39:11;;;;;;;33.83;14.70;;;;;;;10.76;100.00;98106.81;4994368;28;20026;-62
2022/03/31 03:41:40;;;;;;;33.20;14.30;;;;;;;10.75;100.00;98113.06;4994270;28;20432;-62
2022/03/31 03:44:05;;;;;;;29.42;14.35;;;;;;;10.77;100.00;98116.50;4993995;28;20041;-62
2022/03/31 03:46:31;;;;;;;32.75;14.10;;;;;;;10.75;100.00;98115.72;4993926;28;20022;-62
2022/03/31 03:48:56;;;;;;;29.10;14.27;;;;;;;10.67;100.00;98112.72;4993834;28;20053;-62
2022/03/31 03:51:24;;;;;;;32.72;14.00;;;;;;;10.53;100.00;98114.44;4993598;28;20506;-62
2022/03/31 03:53:50;;;;;;;35.00;16.73;;;;;;;10.57;100.00;98121.28;4994026;28;20038;-62
2022/03/31 03:56:16;;;;;;;24.58;13.05;;;;;;;10.57;100.00;98118.63;4993447;28;20030;-62
2022/03/31 03:58:42;;;;;;;29.75;14.18;;;;;;;10.57;100.00;98110.66;4991833;28;20030;-62
2022/03/31 04:01:08;;;;;;;28.23;14.07;;;;;;;10.42;100.00;98102.75;4992218;28;20478;-62
2022/03/31 04:03:34;;;;;;;29.15;13.27;;;;;;;10.51;100.00;98116.31;4993702;28;20029;-62
2022/03/31 04:05:59;;;;;;;25.80;12.48;;;;;;;10.47;100.00;98113.97;4993429;28;20026;-62
2022/03/31 04:08:25;;;;;;;24.10;10.93;;;;;;;10.40;100.00;98113.50;4993665;28;20470;-62
2022/03/31 04:10:50;;;;;;;23.23;13.48;;;;;;;10.35;100.00;98112.91;4993636;28;20033;-63
2022/03/31 04:13:16;;;;;;;26.17;12.18;;;;;;;10.21;100.00;98091.66;4993867;28;20112;-63
2022/03/31 04:15:41;;;;;;;26.45;13.30;;;;;;;10.25;100.00;98109.13;4993376;28;20034;-63
2022/03/31 04:18:08;;;;;;;25.10;11.35;;;;;;;10.22;100.00;98117.28;4993385;28;20028;-64
2022/03/31 04:20:33;;;;;;;24.55;11.57;;;;;;;10.16;100.00;98109.69;4993147;28;20034;-64
2022/03/31 04:22:59;;;;;;;23.13;11.10;;;;;;;10.11;100.00;98108.25;4993205;28;20033;-64
2022/03/31 04:25:24;;;;;;;18.35;9.45;;;;;;;10.08;100.00;98111.94;4993265;28;20026;-64
2022/03/31 04:27:50;;;;;;;25.05;12.15;;;;;;;9.96;100.00;98101.19;4993607;28;20029;-64
2022/03/31 04:30:20;;;;;;;20.20;11.00;;;;;;;10.01;100.00;98105.28;4993039;28;20022;-63
2022/03/31 04:32:45;;;;;;;23.52;11.50;;;;;;;9.93;100.00;98106.69;4992749;28;20022;-63
2022/03/31 04:35:11;;;;;;;21.52;10.85;;;;;;;9.87;100.00;98099.94;4992782;28;20504;-64
2022/03/31 04:37:37;;;;;;;23.00;10.88;;;;;;;9.84;100.00;98097.47;4992801;28;20389;-63
2022/03/31 04:40:07;;;;;;;22.30;11.18;;;;;;;9.88;100.00;98104.31;4992879;28;20065;-64
2022/03/31 04:42:33;;;;;;;21.60;10.68;;;;;;;9.86;100.00;98098.25;4992673;28;20544;-64
2022/03/31 04:44:59;;;;;;;20.88;10.70;;;;;;;9.75;100.00;98097.16;4992628;28;20033;-63
2022/03/31 04:47:25;;;;;;;18.73;9.98;;;;;;;9.66;100.00;98101.22;4993041;28;20034;-63
2022/03/31 04:49:50;;;;;;;22.35;11.15;;;;;;;9.61;100.00;98099.78;4992435;28;20449;-63
2022/03/31 04:52:16;;;;;;;26.08;11.68;;;;;;;9.65;100.00;98104.84;4992743;28;20061;-63
2022/03/31 04:54:44;;;;;;;22.77;11.13;;;;;;;9.63;100.00;98104.06;4992673;28;20084;-63
2022/03/31 04:57:21;;;;;;;23.00;10.35;;;;;;;9.61;100.00;98100.63;4992279;28;20478;-63
2022/03/31 04:59:47;;;;;;;18.15;11.20;;;;;;;9.59;100.00;98102.53;4992553;28;20486;-63
2022/03/31 05:02:12;;;;;;;22.83;13.35;;;;;;;9.54;100.00;98101.94;4992485;28;20081;-63
2022/03/31 05:04:39;;;;;;;19.73;11.63;;;;;;;9.53;100.00;98102.91;4992585;28;20018;-63
2022/03/31 05:07:05;;;;;;;25.95;13.00;;;;;;;9.48;100.00;98104.09;4992288;28;20023;-62
2022/03/31 05:09:30;;;;;;;25.55;13.60;;;;;;;9.49;100.00;98100.53;4992617;28;20401;-62
2022/03/31 05:11:56;;;;;;;35.08;12.32;;;;;;;9.54;100.00;98104.59;4992150;28;20022;-63
2022/03/31 05:14:21;;;;;;;22.00;12.88;;;;;;;9.56;100.00;98107.16;4992391;28;20433;-63
2022/03/31 05:16:47;;;;;;;24.13;12.57;;;;;;;9.57;100.00;98098.25;4986186;28;20105;-63
2022/03/31 05:19:12;;;;;;;23.65;11.20;;;;;;;9.59;100.00;98102.53;4973099;28;20035;-63
2022/03/31 05:21:38;;;;;;;25.33;14.43;;;;;;;9.49;100.00;98101.34;4972994;28;20023;-63
2022/03/31 05:24:04;;;;;;;21.83;13.88;;;;;;;9.41;100.00;98098.28;4972852;28;20019;-62
2022/03/31 05:26:29;;;;;;;23.42;13.27;;;;;;;9.41;100.00;98097.47;4972811;28;20048;-63
2022/03/31 05:28:55;;;;;;;20.38;11.32;;;;;;;9.43;100.00;98096.41;4972851;28;20038;-63
2022/03/31 05:31:20;;;;;;;20.23;11.15;;;;;;;9.45;100.00;98089.22;4977036;28;20022;-63
2022/03/31 05:33:46;;;;;;;23.65;12.30;;;;;;;9.38;100.00;98090.53;4992218;28;20524;-62
2022/03/31 05:36:11;;;;;;;27.23;13.10;;;;;;;9.37;100.00;98091.47;4992246;28;20076;-63
2022/03/31 05:38:37;;;;;;;24.08;12.52;;;;;;;9.31;100.00;98086.50;4992136;28;20022;-63
2022/03/31 05:41:02;;;;;;;19.67;10.85;;;;;;;9.30;100.00;98088.31;4991658;28;20022;-63
2022/03/31 05:43:28;;;;;;;21.20;10.27;;;;;;;9.28;100.00;98082.25;4992082;28;20117;-63
2022/03/31 05:45:53;;;;;;;20.95;10.68;;;;;;;9.26;100.00;98089.44;4991922;28;20025;-63
2022/03/31 05:48:19;;;;;;;24.70;11.50;;;;;;;9.22;100.00;98095.84;4991718;28;20037;-63
2022/03/31 05:50:45;;;;;;;24.88;12.40;;;;;;;9.20;100.00;98088.94;4992060;28;20022;-63
2022/03/31 05:53:10;;;;;;;24.83;12.10;;;;;;;9.06;100.00;98084.41;4991516;28;20022;-63
2022/03/31 05:55:36;;;;;;;22.77;11.63;;;;;;;9.09;100.00;98086.06;4991983;28;20125;-63
2022/03/31 05:58:02;;;;;;;25.00;12.02;;;;;;;9.16;100.00;98087.38;4992093;28;20052;-63
2022/03/31 06:00:28;;;;;;;23.60;12.07;;;;;;;9.14;100.00;98068.91;4991626;28;20038;-63
2022/03/31 06:02:55;;;;;;;22.88;11.93;;;;;;;9.14;100.00;98084.00;4991889;28;20030;-63
2022/03/31 06:05:21;;;;;;;23.00;12.40;;;;;;;9.13;100.00;98072.53;4991725;28;20470;-63
2022/03/31 06:07:47;;;;;;;24.42;11.57;;;;;;;9.20;100.00;98080.97;4992073;28;20034;-64
2022/03/31 06:10:13;;;;;;;27.17;13.20;;;;;;;9.24;100.00;98082.53;4991725;28;20030;-64
2022/03/31 06:12:38;;;;;;;24.42;12.20;;;;;;;9.19;100.00;98085.41;4991883;28;20022;-64
2022/03/31 06:15:06;;;;;;;21.27;11.68;;;;;;;9.13;100.00;98092.88;4991696;28;20026;-64
2022/03/31 06:17:32;;;;;;;22.45;12.55;;;;;;;9.05;100.00;98089.81;4991775;28;20028;-64
2022/03/31 06:19:57;;;;;;;28.45;14.35;;;;;;;9.05;100.00;98095.13;4991546;28;20469;-65
2022/03/31 06:22:23;;;;;;;25.80;13.18;;;;;;;9.10;100.00;98099.22;4991873;28;20054;-65
2022/03/31 06:24:49;;;;;;;27.65;12.43;;;;;;;9.07;100.00;98088.81;4991693;28;20034;-65
2022/03/31 06:27:14;;;;;;;25.85;12.68;;;;;;;9.12;100.00;98092.03;4991930;28;20034;-65
2022/03/31 06:29:42;;;;;;;27.33;13.20;;;;;;;9.15;100.00;98096.31;4991756;28;20026;-65
2022/03/31 06:32:08;;;;;;;25.52;12.80;;;;;;;9.15;100.00;98086.56;4995343;28;20093;-65
2022/03/31 06:34:36;;;;;;;23.63;12.15;;;;;;;9.19;100.00;98089.88;4995393;28;20030;-65
2022/03/31 06:37:01;;;;;;;28.58;13.38;;;;;;;9.16;100.00;98087.38;4995221;28;20026;-65
2022/03/31 06:39:27;;;;;;;26.90;13.32;;;;;;;9.19;100.00;98079.28;4995195;28;20029;-65
2022/03/31 06:41:52;;;;;;;22.90;11.80;;;;;;;9.18;100.00;98080.19;4994719;28;20031;-65
2022/03/31 06:44:19;;;;;;;24.23;12.75;;;;;;;9.17;100.00;98094.41;4994960;28;20022;-65
2022/03/31 06:46:46;;;;;;;22.00;11.80;;;;;;;9.16;100.00;98092.69;4994672;28;20026;-65
2022/03/31 06:49:12;;;;;;;25.20;11.70;;;;;;;9.17;100.00;98079.38;4994964;28;20477;-65
2022/03/31 06:51:37;;;;;;;21.98;11.82;;;;;;;9.24;100.00;98090.47;4995006;28;20050;-65
2022/03/31 06:54:03;;;;;;;25.45;12.95;;;;;;;9.24;100.00;98090.47;4994713;28;20112;-65
2022/03/31 06:56:30;;;;;;;25.70;12.38;;;;;;;9.23;100.00;98088.75;4994694;28;20018;-65
2022/03/31 06:58:57;;;;;;;25.52;12.32;;;;;;;9.22;100.00;98079.94;4994853;28;20126;-65
2022/03/31 07:01:23;;;;;;;25.20;12.27;;;;;;;9.15;100.00;98080.38;4994655;28;20030;-65
2022/03/31 07:03:49;;;;;;;25.33;13.88;;;;;;;9.10;100.00;98085.09;4994676;28;20073;-65
2022/03/31 07:06:15;;;;;;;26.35;12.77;;;;;;;9.09;100.00;98078.09;4994550;28;20026;-65
2022/03/31 07:08:41;;;;;;;24.20;13.27;;;;;;;9.18;100.00;98085.50;4977169;28;20473;-65
2022/03/31 07:11:07;;;;;;;23.58;12.00;;;;;;;9.10;100.00;98066.53;4993845;28;20022;-65
2022/03/31 07:13:33;;;;;;;25.45;12.95;;;;;;;9.15;100.00;98088.34;4994783;28;20038;-65
2022/03/31 07:15:58;;;;;;;21.20;11.25;;;;;;;9.21;100.00;98086.19;4994424;28;20386;-65
2022/03/31 07:18:24;;;;;;;25.00;13.70;;;;;;;9.17;100.00;98086.47;4975865;28;20053;-65
2022/03/31 07:20:52;;;;;;;23.70;12.18;;;;;;;9.10;100.00;98093.06;4974894;28;20026;-65
2022/03/31 07:23:19;;;;;;;27.45;13.27;;;;;;;9.13;100.00;98092.88;4975134;28;20027;-65
2022/03/31 07:25:45;;;;;;;30.52;14.15;;;;;;;9.12;100.00;98092.03;4974890;28;20025;-65
2022/03/31 07:28:10;;;;;;;27.40;12.95;;;;;;;9.20;100.00;98078.31;4975061;28;20371;-65
2022/03/31 07:30:36;;;;;;;24.02;12.98;;;;;;;9.19;100.00;98088.06;4974745;28;20538;-65
2022/03/31 07:33:03;;;;;;;25.52;12.82;;;;;;;9.25;100.00;98070.97;4992819;28;20022;-65
2022/03/31 07:35:32;;;;;;;27.10;13.27;;;;;;;9.31;100.00;98081.19;4993906;28;20029;-65
2022/03/31 07:37:59;;;;;;;26.60;12.50;;;;;;;9.35;100.00;98085.41;4994201;28;20113;-65
2022/03/31 07:40:26;;;;;;;27.17;14.57;;;;;;;9.34;100.00;98060.66;4993783;28;20036;-65
2022/03/31 07:42:52;;;;;;;24.90;12.57;;;;;;;9.44;100.00;98079.53;4994133;28;20058;-65
2022/03/31 07:45:19;;;;;;;26.27;12.40;;;;;;;9.56;100.00;98081.47;4993617;28;20418;-65
2022/03/31 07:47:45;;;;;;;25.15;12.77;;;;;;;9.44;100.00;98071.56;4994061;28;20026;-65
2022/03/31 07:50:13;;;;;;;25.27;11.93;;;;;;;9.53;100.00;98083.44;4993367;28;20497;-65
2022/03/31 07:52:40;;;;;;;26.35;12.77;;;;;;;9.45;100.00;98078.59;4992778;28;20028;-65
2022/03/31 07:55:07;;;;;;;23.63;11.65;;;;;;;9.47;100.00;98071.41;4992754;28;20030;-65
2022/03/31 07:57:33;;;;;;;27.30;12.10;;;;;;;9.52;100.00;98077.31;4994126;28;20034;-65
2022/03/31 07:59:59;;;;;;;27.02;13.43;;;;;;;9.55;100.00;98077.13;4993468;28;20100;-65
2022/03/31 08:02:25;;;;;;;27.92;13.38;;;;;;;9.54;100.00;98064.78;4993681;28;20033;-65
2022/03/31 08:04:51;;;;;;;26.98;13.35;;;;;;;9.70;100.00;98081.53;4993219;28;20425;-65
2022/03/31 08:07:17;;;;;;;28.83;15.10;;;;;;;9.75;100.00;98084.72;4993734;28;20030;-65
2022/03/31 08:09:43;;;;;;;24.98;13.00;;;;;;;9.77;100.00;98085.50;4993635;28;20076;-65
2022/03/31 08:12:09;;;;;;;28.70;13.90;;;;;;;9.80;100.00;98080.00;4993482;28;20486;-65
2022/03/31 08:14:35;;;;;;;28.23;13.80;;;;;;;9.68;100.00;98074.59;4993723;28;20560;-65
2022/03/31 08:17:00;;;;;;;28.27;13.32;;;;;;;9.67;100.00;98068.41;4993046;28;20054;-65
2022/03/31 08:19:29;;;;;;;26.45;11.80;;;;;;;9.72;100.00;98065.50;4993450;28;20385;-65
2022/03/31 08:21:55;;;;;;;27.42;13.25;;;;;;;9.73;100.00;98076.03;4993084;28;20480;-65
2022/03/31 08:24:21;;;;;;;23.27;11.73;;;;;;;9.85;100.00;98069.13;4993437;28;20026;-65
2022/03/31 08:26:46;;;;;;;24.98;12.60;;;;;;;9.88;100.00;98072.44;4993216;28;20102;-65
2022/03/31 08:29:12;;;;;;;25.73;11.60;;;;;;;9.81;100.00;98079.06;4993270;28;20029;-65
2022/03/31 08:31:38;;;;;;;24.48;12.40;;;;;;;9.80;100.00;98069.38;4992527;28;20032;-65
2022/03/31 08:34:05;;;;;;;23.95;11.68;;;;;;;9.82;100.00;98071.97;4992401;28;20022;-65
2022/03/31 08:36:31;;;;;;;23.10;11.43;;;;;;;9.84;100.00;98070.91;4993021;28;20325;-65
2022/03/31 08:38:57;;;;;;;24.23;12.23;;;;;;;9.96;100.00;98064.00;4993063;28;20559;-65
2022/03/31 08:41:28;;;;;;;27.15;12.55;;;;;;;10.17;100.00;98062.72;4992775;28;20422;-65
2022/03/31 08:43:54;;;;;;;27.35;11.77;;;;;;;9.95;100.00;98055.19;4993446;28;20034;-65
2022/03/31 08:46:21;;;;;;;28.63;12.02;;;;;;;9.96;100.00;98059.56;4992517;28;20109;-65
2022/03/31 08:48:46;;;;;;;24.75;12.77;;;;;;;9.91;100.00;98019.16;4992021;28;20056;-65
2022/03/31 08:51:12;;;;;;;30.10;13.13;;;;;;;10.14;99.34;98058.47;4991523;28;20034;-65
2022/03/31 08:53:38;;;;;;;25.25;10.95;;;;;;;10.12;99.66;98060.34;4992669;28;20033;-65
2022/03/31 08:56:04;;;;;;;19.70;10.57;;;;;;;10.10;98.72;98066.69;4992442;28;20393;-65
2022/03/31 08:58:30;;;;;;;22.48;12.98;;;;;;;10.08;99.14;98048.19;4992752;28;20105;-65
2022/03/31 09:00:55;;;;;;;47.20;13.07;;;;;;;10.28;99.27;98065.59;4992335;28;20023;-65
2022/03/31 09:03:32;;;;;;;23.48;11.77;;;;;;;10.35;99.56;98066.88;4992830;28;20076;-65
2022/03/31 09:05:58;;;;;;;22.10;10.65;;;;;;;10.41;98.84;98067.34;4992550;28;20042;-65
2022/03/31 09:08:23;;;;;;;21.92;11.02;;;;;;;10.30;98.31;98074.28;4992697;28;20030;-65
2022/03/31 09:10:53;;;;;;;22.42;11.20;;;;;;;10.22;98.45;98074.78;4992708;28;20018;-65
2022/03/31 09:13:40;;;;;;;20.70;11.30;;;;;;;10.16;98.04;98069.84;4992582;28;20381;-65
2022/03/31 09:16:10;;;;;;;26.63;11.52;;;;;;;10.20;98.85;98071.34;4992310;28;20022;-65
2022/03/31 09:18:37;;;;;;;26.90;11.95;;;;;;;10.10;98.63;98064.91;4991973;28;20022;-65
2022/03/31 09:21:05;;;;;;;22.45;11.82;;;;;;;10.27;99.71;98072.69;4991856;28;20022;-65
2022/03/31 09:23:52;;;;;;;23.85;11.50;;;;;;;10.32;99.76;98069.72;4992536;28;20023;-65
2022/03/31 09:26:18;;;;;;;26.42;10.93;;;;;;;10.30;99.94;98069.84;4977323;28;20053;-65
2022/03/31 09:28:44;;;;;;;22.27;11.55;;;;;;;10.37;99.62;98080.94;4992424;28;20039;-65
2022/03/31 09:31:11;;;;;;;22.83;11.30;;;;;;;10.27;100.00;98067.38;4992203;28;20027;-65
2022/03/31 09:33:41;;;;;;;22.90;11.18;;;;;;;10.20;98.66;98068.69;4992617;28;20034;-65
2022/03/31 09:36:07;;;;;;;25.13;11.02;;;;;;;10.34;98.12;98066.06;4992331;28;20037;-65
2022/03/31 09:38:37;;;;;;;22.92;10.68;;;;;;;10.39;98.84;98063.94;4992071;28;20033;-65
2022/03/31 09:41:25;;;;;;;20.92;10.10;;;;;;;10.46;98.39;98065.25;4992180;28;20084;-65
2022/03/31 09:43:53;;;;;;;19.42;11.00;;;;;;;10.45;100.00;98062.69;4992314;28;20026;-65
2022/03/31 09:46:35;;;;;;;22.33;10.90;;;;;;;10.53;99.57;98060.41;4991386;28;20022;-64
2022/03/31 09:49:17;;;;;;;27.52;12.50;;;;;;;10.56;98.87;98068.19;4991770;28;20058;-64
2022/03/31 09:51:44;;;;;;;22.65;11.15;;;;;;;10.55;97.41;98069.16;4973536;28;20033;-65
2022/03/31 09:54:10;;;;;;;22.27;10.80;;;;;;;10.52;97.25;98067.53;4991255;28;20023;-65
2022/03/31 09:56:39;;;;;;;24.73;12.18;;;;;;;10.50;97.79;98064.13;4992122;28;20389;-65
2022/03/31 09:59:07;;;;;;;22.05;10.90;;;;;;;10.50;97.00;98074.75;4992145;28;20029;-65
2022/03/31 10:01:34;;;;;;;30.80;10.60;;;;;;;10.48;97.21;98067.81;4992538;28;20026;-65
2022/03/31 10:04:02;;;;;;;27.50;12.13;;;;;;;10.53;96.88;98066.59;4996225;28;20030;-65
2022/03/31 10:06:27;;;;;;;27.88;11.00;;;;;;;10.55;96.80;98058.50;4996066;28;20713;-65
2022/03/31 10:08:57;;;;;;;23.70;11.43;;;;;;;10.63;97.30;98064.19;4995917;28;20101;-65
2022/03/31 10:11:26;;;;;;;22.67;10.65;;;;;;;10.61;98.29;98058.97;4995637;28;20108;-65
2022/03/31 10:14:30;;;;;;;25.90;12.35;;;;;;;10.73;97.49;98059.13;4995812;28;20033;-65
2022/03/31 10:16:58;;;;;;;19.90;9.77;;;;;;;10.79;96.46;98056.09;4994491;28;20350;-65
2022/03/31 10:19:37;;;;;;;24.10;12.52;;;;;;;11.03;97.71;98049.16;4995738;28;20030;-65
2022/03/31 10:22:09;;;;;;;23.60;12.18;;;;;;;11.07;95.46;98046.19;4995505;28;20036;-65
2022/03/31 10:24:47;;;;;;;22.40;11.97;;;;;;;11.07;95.94;98042.72;4975961;28;20480;-65
2022/03/31 10:27:24;;;;;;;22.30;11.27;;;;;;;11.21;96.74;98054.13;4976106;28;20073;-64
2022/03/31 10:29:49;;;;;;;21.83;12.25;;;;;;;11.22;95.52;98041.69;4976048;28;20110;-64
2022/03/31 10:32:24;;;;;;;24.58;12.07;;;;;;;11.20;93.87;98047.09;4989529;28;20450;-64
2022/03/31 10:34:53;;;;;;;24.38;14.20;;;;;;;11.19;94.29;98039.22;4994520;28;20018;-64
2022/03/31 10:37:38;;;;;;;24.25;12.55;;;;;;;11.15;93.72;98040.38;4995529;28;20525;-64
2022/03/31 10:40:08;;;;;;;22.10;11.27;;;;;;;10.94;93.23;98044.47;4994472;28;20501;-64
2022/03/31 10:42:33;;;;;;;24.42;12.30;;;;;;;10.86;94.43;98050.28;4992716;28;20030;-64
2022/03/31 10:45:14;;;;;;;22.88;13.23;;;;;;;10.82;93.31;98047.91;4995190;28;20037;-64
2022/03/31 10:47:43;;;;;;;26.67;12.50;;;;;;;10.85;93.98;98043.25;4995380;28;20496;-64
2022/03/31 10:50:22;;;;;;;23.20;12.32;;;;;;;10.77;94.95;98044.69;4994935;28;20178;-64
2022/03/31 10:53:00;;;;;;;23.05;13.82;;;;;;;10.83;94.66;98042.50;4995066;28;20023;-64
2022/03/31 10:55:40;;;;;;;26.15;13.18;;;;;;;10.90;94.73;98037.63;4995014;28;20055;-65
2022/03/31 10:58:20;;;;;;;22.90;11.32;;;;;;;10.91;95.09;98034.00;4995243;28;20101;-65
2022/03/31 11:00:45;;;;;;;24.10;12.30;;;;;;;10.86;94.67;98018.34;4994468;28;20418;-65
2022/03/31 11:03:16;;;;;;;27.63;13.48;;;;;;;10.93;94.77;98027.66;4994856;28;20026;-65
2022/03/31 11:05:41;;;;;;;24.80;12.57;;;;;;;10.99;95.91;98026.41;4994832;28;20037;-65
2022/03/31 11:08:08;;;;;;;22.95;12.10;;;;;;;11.11;95.92;98030.88;4994592;28;20030;-65
2022/03/31 11:10:41;;;;;;;23.48;12.77;;;;;;;11.09;94.83;98033.66;4994621;28;20069;-65
2022/03/31 11:13:07;;;;;;;24.00;12.13;;;;;;;11.12;95.39;98032.63;4993900;28;20022;-65
2022/03/31 11:15:33;;;;;;;20.05;11.45;;;;;;;10.89;94.75;97998.69;4994597;28;20034;-65
2022/03/31 11:18:01;;;;;;;27.15;13.00;;;;;;;10.94;95.02;98018.69;4994039;28;20084;-64